Airport View

Enter AWOS ICAO identifier for current METAR.

ex. KFNL

KMWC 030010Z AUTO 25012G18KT 10SM CLR 30/16 A2975 RMK AO2

3 Jun 2020 00:11

Phone: 414-461-2954

Other Area AWOS: KUES - KMKE - KETB - KRAC

TAF KUES 022341Z 0300/0324 25012KT P6SM FEW250 FM030300 24005KT P6SM VCTS BKN080CB TEMPO 0303/0305 4SM TSRA OVC050CB FM030500 27005KT P6SM -SHRA VCTS OVC050CB FM030700 28003KT P6SM -SHRA SCT050 OVC100 FM031200 28006KT P6SM BKN070 FM031800 31007KT P6SM FEW250